sensor_id;sensor_type;location;lat;lon;timestamp;pressure;altitude;pressure_sealevel;temperature;humidity
56414;BME280;42318;48.452;19.526;2023-06-14T00:03:58;98096.78;;;20.58;57.48
56414;BME280;42318;48.452;19.526;2023-06-14T00:11:29;98089.69;;;20.57;57.88
56414;BME280;42318;48.452;19.526;2023-06-14T00:19:01;98084.50;;;20.55;57.83
56414;BME280;42318;48.452;19.526;2023-06-14T00:26:35;98097.31;;;20.55;57.78
56414;BME280;42318;48.452;19.526;2023-06-14T00:34:06;98091.59;;;20.51;57.91
56414;BME280;42318;48.452;19.526;2023-06-14T00:41:37;98090.22;;;20.54;57.63
56414;BME280;42318;48.452;19.526;2023-06-14T00:49:08;98088.03;;;20.51;57.70
56414;BME280;42318;48.452;19.526;2023-06-14T00:56:40;98094.56;;;20.50;57.40
56414;BME280;42318;48.452;19.526;2023-06-14T01:04:11;98076.63;;;20.49;57.46
56414;BME280;42318;48.452;19.526;2023-06-14T01:11:58;98077.16;;;20.46;57.74
56414;BME280;42318;48.452;19.526;2023-06-14T01:19:29;98071.72;;;20.46;57.67
56414;BME280;42318;48.452;19.526;2023-06-14T01:27:02;98066.00;;;20.47;57.50
56414;BME280;42318;48.452;19.526;2023-06-14T01:34:33;98064.63;;;20.45;57.83
56414;BME280;42318;48.452;19.526;2023-06-14T01:42:04;98072.53;;;20.46;57.49
56414;BME280;42318;48.452;19.526;2023-06-14T01:49:38;98073.88;;;20.44;57.58
56414;BME280;42318;48.452;19.526;2023-06-14T01:57:09;98078.50;;;20.43;57.53
56414;BME280;42318;48.452;19.526;2023-06-14T02:04:41;98083.94;;;20.43;57.48
56414;BME280;42318;48.452;19.526;2023-06-14T02:12:12;98084.22;;;20.42;57.28
56414;BME280;42318;48.452;19.526;2023-06-14T02:19:43;98081.50;;;20.42;57.55
56414;BME280;42318;48.452;19.526;2023-06-14T02:27:14;98088.25;;;20.39;57.64
56414;BME280;42318;48.452;19.526;2023-06-14T02:34:44;98088.25;;;20.39;57.41
56414;BME280;42318;48.452;19.526;2023-06-14T02:42:20;98089.34;;;20.38;57.86
56414;BME280;42318;48.452;19.526;2023-06-14T02:49:50;98089.34;;;20.38;57.64
56414;BME280;42318;48.452;19.526;2023-06-14T02:57:22;98078.69;;;20.36;57.36
56414;BME280;42318;48.452;19.526;2023-06-14T03:04:53;98083.03;;;20.32;57.78
56414;BME280;42318;48.452;19.526;2023-06-14T03:12:24;98078.97;;;20.35;57.70
56414;BME280;42318;48.452;19.526;2023-06-14T03:19:55;98085.50;;;20.34;57.36
56414;BME280;42318;48.452;19.526;2023-06-14T03:27:26;98080.59;;;20.31;57.49
56414;BME280;42318;48.452;19.526;2023-06-14T03:34:59;98083.84;;;20.33;57.40
56414;BME280;42318;48.452;19.526;2023-06-14T03:42:29;98078.13;;;20.29;57.94
56414;BME280;42318;48.452;19.526;2023-06-14T03:50:01;98084.41;;;20.30;57.64
56414;BME280;42318;48.452;19.526;2023-06-14T03:57:33;98094.75;;;20.33;57.50
56414;BME280;42318;48.452;19.526;2023-06-14T04:05:04;98086.84;;;20.31;57.64
56414;BME280;42318;48.452;19.526;2023-06-14T04:12:39;98088.75;;;20.31;57.57
56414;BME280;42318;48.452;19.526;2023-06-14T04:20:10;98103.16;;;20.31;57.72
56414;BME280;42318;48.452;19.526;2023-06-14T04:27:41;98101.53;;;20.30;57.59
56414;BME280;42318;48.452;19.526;2023-06-14T04:35:12;98098.81;;;20.30;57.75
56414;BME280;42318;48.452;19.526;2023-06-14T04:42:43;98098.00;;;20.30;57.73
56414;BME280;42318;48.452;19.526;2023-06-14T04:50:15;98103.16;;;20.31;57.39
56414;BME280;42318;48.452;19.526;2023-06-14T04:57:47;98114.06;;;20.31;57.53
56414;BME280;42318;48.452;19.526;2023-06-14T05:05:18;98121.41;;;20.31;57.57
56414;BME280;42318;48.452;19.526;2023-06-14T05:12:50;98120.84;;;20.29;57.81
56414;BME280;42318;48.452;19.526;2023-06-14T05:20:22;98121.66;;;20.29;57.68
56414;BME280;42318;48.452;19.526;2023-06-14T05:27:56;98128.75;;;20.30;57.72
56414;BME280;42318;48.452;19.526;2023-06-14T05:35:27;98129.56;;;20.31;57.43
56414;BME280;42318;48.452;19.526;2023-06-14T05:42:58;98118.13;;;20.29;57.38
56414;BME280;42318;48.452;19.526;2023-06-14T05:50:30;98133.09;;;20.31;57.44
56414;BME280;42318;48.452;19.526;2023-06-14T05:58:02;98129.56;;;20.31;57.93
56414;BME280;42318;48.452;19.526;2023-06-14T06:05:33;98118.41;;;20.32;57.73
56414;BME280;42318;48.452;19.526;2023-06-14T06:13:04;98132.84;;;20.33;57.70
56414;BME280;42318;48.452;19.526;2023-06-14T06:20:35;98130.94;;;20.33;57.92
56414;BME280;42318;48.452;19.526;2023-06-14T06:28:06;98132.56;;;20.34;57.93
56414;BME280;42318;48.452;19.526;2023-06-14T06:35:37;98134.47;;;20.34;58.14
56414;BME280;42318;48.452;19.526;2023-06-14T06:43:08;98131.75;;;20.34;58.14
56414;BME280;42318;48.452;19.526;2023-06-14T06:50:39;98138.81;;;20.35;58.22
56414;BME280;42318;48.452;19.526;2023-06-14T06:58:10;98138.00;;;20.34;58.25
56414;BME280;42318;48.452;19.526;2023-06-14T07:05:41;98135.28;;;20.34;58.07
56414;BME280;42318;48.452;19.526;2023-06-14T07:13:12;98129.03;;;20.34;57.86
56414;BME280;42318;48.452;19.526;2023-06-14T07:20:43;98132.31;;;20.36;58.17
56414;BME280;42318;48.452;19.526;2023-06-14T07:28:14;98136.94;;;20.35;57.97
56414;BME280;42318;48.452;19.526;2023-06-14T07:35:45;98130.66;;;20.35;57.62
56414;BME280;42318;48.452;19.526;2023-06-14T07:43:16;98128.50;;;20.37;57.37
56414;BME280;42318;48.452;19.526;2023-06-14T07:50:47;98125.78;;;20.37;57.46
56414;BME280;42318;48.452;19.526;2023-06-14T07:58:18;98130.16;;;20.38;57.60
56414;BME280;42318;48.452;19.526;2023-06-14T08:05:49;98124.72;;;20.38;57.46
56414;BME280;42318;48.452;19.526;2023-06-14T08:13:20;98127.69;;;20.36;57.55
56414;BME280;42318;48.452;19.526;2023-06-14T08:20:51;98132.88;;;20.38;57.39
56414;BME280;42318;48.452;19.526;2023-06-14T08:28:24;98136.19;;;20.40;57.44
56414;BME280;42318;48.452;19.526;2023-06-14T08:35:55;98129.06;;;20.39;57.31
56414;BME280;42318;48.452;19.526;2023-06-14T08:43:25;98123.41;;;20.41;56.93
56414;BME280;42318;48.452;19.526;2023-06-14T08:50:59;98113.34;;;20.41;56.64
56414;BME280;42318;48.452;19.526;2023-06-14T08:58:33;98111.69;;;20.40;56.29
56414;BME280;42318;48.452;19.526;2023-06-14T09:06:05;98132.66;;;20.40;56.55
56414;BME280;42318;48.452;19.526;2023-06-14T09:13:36;98130.97;;;20.38;56.55
56414;BME280;42318;48.452;19.526;2023-06-14T09:21:07;98130.97;;;20.38;56.31
56414;BME280;42318;48.452;19.526;2023-06-14T09:28:43;98129.94;;;20.40;56.40
56414;BME280;42318;48.452;19.526;2023-06-14T09:36:18;98117.38;;;20.38;56.14
56414;BME280;42318;48.452;19.526;2023-06-14T09:43:49;98117.13;;;20.40;55.78
56414;BME280;42318;48.452;19.526;2023-06-14T09:51:22;98117.13;;;20.40;55.76
56414;BME280;42318;48.452;19.526;2023-06-14T09:58:58;98114.97;;;20.42;55.79
56414;BME280;42318;48.452;19.526;2023-06-14T10:06:29;98097.50;;;20.38;55.25
56414;BME280;42318;48.452;19.526;2023-06-14T10:14:02;98107.88;;;20.41;55.23
56414;BME280;42318;48.452;19.526;2023-06-14T10:21:51;98108.72;;;20.42;55.54
56414;BME280;42318;48.452;19.526;2023-06-14T10:29:27;98108.72;;;20.42;55.76
56414;BME280;42318;48.452;19.526;2023-06-14T10:37:08;98098.31;;;20.38;55.87
56414;BME280;42318;48.452;19.526;2023-06-14T10:44:49;98090.75;;;20.41;55.89
56414;BME280;42318;48.452;19.526;2023-06-14T10:52:26;98088.56;;;20.43;55.84
56414;BME280;42318;48.452;19.526;2023-06-14T11:00:00;98095.66;;;20.44;55.79
56414;BME280;42318;48.452;19.526;2023-06-14T11:15:05;98077.13;;;20.41;55.67
56414;BME280;42318;48.452;19.526;2023-06-14T11:22:41;98091.84;;;20.45;55.38
56414;BME280;42318;48.452;19.526;2023-06-14T11:30:13;98094.28;;;20.46;55.30
56414;BME280;42318;48.452;19.526;2023-06-14T11:37:44;98090.75;;;20.46;55.68
56414;BME280;42318;48.452;19.526;2023-06-14T11:45:15;98089.66;;;20.47;55.83
56414;BME280;42318;48.452;19.526;2023-06-14T11:52:52;98081.50;;;20.47;55.94
56414;BME280;42318;48.452;19.526;2023-06-14T12:00:25;98082.03;;;20.44;56.07
56414;BME280;42318;48.452;19.526;2023-06-14T12:08:00;98093.47;;;20.46;56.31
56414;BME280;42318;48.452;19.526;2023-06-14T12:15:31;98088.84;;;20.46;56.22
56414;BME280;42318;48.452;19.526;2023-06-14T12:23:03;98094.00;;;20.43;56.24
56414;BME280;42318;48.452;19.526;2023-06-14T12:30:38;98104.38;;;20.46;56.75
56414;BME280;42318;48.452;19.526;2023-06-14T12:38:08;98105.19;;;20.46;56.86
56414;BME280;42318;48.452;19.526;2023-06-14T12:45:40;98104.91;;;20.48;57.37
56414;BME280;42318;48.452;19.526;2023-06-14T12:53:11;98102.75;;;20.50;56.97
56414;BME280;42318;48.452;19.526;2023-06-14T13:00:42;98097.56;;;20.53;56.94
56414;BME280;42318;48.452;19.526;2023-06-14T13:08:13;98100.56;;;20.57;57.26
56414;BME280;42318;48.452;19.526;2023-06-14T13:15:44;98102.50;;;20.61;57.69
56414;BME280;42318;48.452;19.526;2023-06-14T13:23:16;98112.56;;;20.61;57.61
56414;BME280;42318;48.452;19.526;2023-06-14T13:30:47;98114.72;;;20.59;58.22
56414;BME280;42318;48.452;19.526;2023-06-14T13:38:18;98122.38;;;20.62;58.07
56414;BME280;42318;48.452;19.526;2023-06-14T13:45:49;98126.16;;;20.61;57.25
56414;BME280;42318;48.452;19.526;2023-06-14T13:53:20;98127.25;;;20.60;57.46
56414;BME280;42318;48.452;19.526;2023-06-14T14:00:51;98134.59;;;20.59;57.32
56414;BME280;42318;48.452;19.526;2023-06-14T14:08:21;98121.25;;;20.58;57.34
56414;BME280;42318;48.452;19.526;2023-06-14T14:15:52;98124.53;;;20.60;57.57
56414;BME280;42318;48.452;19.526;2023-06-14T14:23:23;98122.09;;;20.58;57.69
56414;BME280;42318;48.452;19.526;2023-06-14T14:30:54;98112.81;;;20.54;57.51
56414;BME280;42318;48.452;19.526;2023-06-14T14:38:25;98110.66;;;20.56;57.27
56414;BME280;42318;48.452;19.526;2023-06-14T14:45:56;98112.84;;;20.59;57.32
56414;BME280;42318;48.452;19.526;2023-06-14T14:53:28;98102.50;;;20.61;57.10
56414;BME280;42318;48.452;19.526;2023-06-14T15:00:59;98099.78;;;20.61;56.90
56414;BME280;42318;48.452;19.526;2023-06-14T15:08:30;98091.06;;;20.59;57.01
56414;BME280;42318;48.452;19.526;2023-06-14T15:16:01;98093.78;;;20.59;56.94
56414;BME280;42318;48.452;19.526;2023-06-14T15:23:38;98091.31;;;20.58;56.35
56414;BME280;42318;48.452;19.526;2023-06-14T15:31:09;98088.59;;;20.58;55.93
56414;BME280;42318;48.452;19.526;2023-06-14T15:38:39;98085.88;;;20.58;58.80
56414;BME280;42318;48.452;19.526;2023-06-14T15:46:10;98077.16;;;20.56;58.45
56414;BME280;42318;48.452;19.526;2023-06-14T15:53:41;98089.16;;;20.60;58.43
56414;BME280;42318;48.452;19.526;2023-06-14T16:01:12;98082.88;;;20.59;58.13
56414;BME280;42318;48.452;19.526;2023-06-14T16:08:44;98083.72;;;20.60;58.18
56414;BME280;42318;48.452;19.526;2023-06-14T16:16:15;98081.25;;;20.58;57.80
56414;BME280;42318;48.452;19.526;2023-06-14T16:23:46;98088.88;;;20.61;57.61
56414;BME280;42318;48.452;19.526;2023-06-14T16:31:17;98089.16;;;20.65;57.60
56414;BME280;42318;48.452;19.526;2023-06-14T16:38:49;98095.41;;;20.65;57.63
56414;BME280;42318;48.452;19.526;2023-06-14T16:46:31;98096.78;;;20.68;57.81
56414;BME280;42318;48.452;19.526;2023-06-14T16:54:02;98106.31;;;20.65;57.42
56414;BME280;42318;48.452;19.526;2023-06-14T17:01:33;98113.13;;;20.68;57.71
56414;BME280;42318;48.452;19.526;2023-06-14T17:09:05;98122.38;;;20.67;57.42
56414;BME280;42318;48.452;19.526;2023-06-14T17:16:36;98125.91;;;20.67;57.52
56414;BME280;42318;48.452;19.526;2023-06-14T17:24:06;98125.09;;;20.67;57.49
56414;BME280;42318;48.452;19.526;2023-06-14T17:31:37;98130.81;;;20.65;57.59
56414;BME280;42318;48.452;19.526;2023-06-14T17:39:08;98144.97;;;20.67;57.59
56414;BME280;42318;48.452;19.526;2023-06-14T17:46:39;98146.88;;;20.67;57.33
56414;BME280;42318;48.452;19.526;2023-06-14T17:54:10;98158.59;;;20.67;57.71
56414;BME280;42318;48.452;19.526;2023-06-14T18:01:40;98171.09;;;20.68;57.54
56414;BME280;42318;48.452;19.526;2023-06-14T18:09:12;98174.09;;;20.67;57.60
56414;BME280;42318;48.452;19.526;2023-06-14T18:16:44;98180.63;;;20.66;57.58
56414;BME280;42318;48.452;19.526;2023-06-14T18:24:16;98188.78;;;20.66;57.75
56414;BME280;42318;48.452;19.526;2023-06-14T18:31:46;98198.03;;;20.65;57.81
56414;BME280;42318;48.452;19.526;2023-06-14T18:39:17;98204.31;;;20.65;57.57
56414;BME280;42318;48.452;19.526;2023-06-14T18:46:49;98199.13;;;20.64;57.76
56414;BME280;42318;48.452;19.526;2023-06-14T18:54:20;98208.94;;;20.65;57.43
56414;BME280;42318;48.452;19.526;2023-06-14T19:01:51;98228.81;;;20.65;57.64
56414;BME280;42318;48.452;19.526;2023-06-14T19:09:22;98232.63;;;20.64;57.39
56414;BME280;42318;48.452;19.526;2023-06-14T19:16:53;98234.53;;;20.64;57.72
56414;BME280;42318;48.452;19.526;2023-06-14T19:24:25;98244.59;;;20.63;57.73
56414;BME280;42318;48.452;19.526;2023-06-14T19:31:56;98251.38;;;20.61;57.86
56414;BME280;42318;48.452;19.526;2023-06-14T19:39:28;98256.56;;;20.62;57.99
56414;BME280;42318;48.452;19.526;2023-06-14T19:46:59;98263.91;;;20.62;57.84
56414;BME280;42318;48.452;19.526;2023-06-14T19:54:29;98258.47;;;20.62;57.53
56414;BME280;42318;48.452;19.526;2023-06-14T20:02:00;98264.72;;;20.62;57.62
56414;BME280;42318;48.452;19.526;2023-06-14T20:09:34;98254.94;;;20.61;57.53
56414;BME280;42318;48.452;19.526;2023-06-14T20:17:05;98259.56;;;20.61;57.97
56414;BME280;42318;48.452;19.526;2023-06-14T20:24:36;98262.28;;;20.61;57.75
56414;BME280;42318;48.452;19.526;2023-06-14T20:32:08;98257.09;;;20.59;57.90
56414;BME280;42318;48.452;19.526;2023-06-14T20:39:39;98253.56;;;20.59;58.09
56414;BME280;42318;48.452;19.526;2023-06-14T20:47:10;98257.09;;;20.59;57.80
56414;BME280;42318;48.452;19.526;2023-06-14T20:54:44;98264.44;;;20.59;57.83
56414;BME280;42318;48.452;19.526;2023-06-14T21:02:15;98264.19;;;20.60;57.86
56414;BME280;42318;48.452;19.526;2023-06-14T21:09:47;98261.72;;;20.59;57.91
56414;BME280;42318;48.452;19.526;2023-06-14T21:17:18;98267.72;;;20.61;57.61
56414;BME280;42318;48.452;19.526;2023-06-14T21:24:49;98259.00;;;20.59;57.80
56414;BME280;42318;48.452;19.526;2023-06-14T21:32:20;98262.53;;;20.59;57.92
56414;BME280;42318;48.452;19.526;2023-06-14T21:39:51;98263.63;;;20.58;57.78
56414;BME280;42318;48.452;19.526;2023-06-14T21:47:21;98250.53;;;20.55;57.98
56414;BME280;42318;48.452;19.526;2023-06-14T21:54:55;98263.88;;;20.57;58.10
56414;BME280;42318;48.452;19.526;2023-06-14T22:02:27;98267.97;;;20.54;58.11
56414;BME280;42318;48.452;19.526;2023-06-14T22:09:59;98271.50;;;20.55;58.12
56414;BME280;42318;48.452;19.526;2023-06-14T22:17:30;98275.03;;;20.55;58.25
56414;BME280;42318;48.452;19.526;2023-06-14T22:25:01;98276.94;;;20.55;58.26
56414;BME280;42318;48.452;19.526;2023-06-14T22:32:32;98275.31;;;20.54;58.33
56414;BME280;42318;48.452;19.526;2023-06-14T22:40:07;98269.03;;;20.48;58.11
56414;BME280;42318;48.452;19.526;2023-06-14T22:47:41;98266.00;;;20.45;57.83
56414;BME280;42318;48.452;19.526;2023-06-14T22:55:12;98266.56;;;20.47;58.00
56414;BME280;42318;48.452;19.526;2023-06-14T23:02:43;98270.63;;;20.44;57.68
56414;BME280;42318;48.452;19.526;2023-06-14T23:10:16;98262.19;;;20.41;57.77
56414;BME280;42318;48.452;19.526;2023-06-14T23:17:48;98264.53;;;20.37;57.66
56414;BME280;42318;48.452;19.526;2023-06-14T23:25:20;98274.16;;;20.40;57.48
56414;BME280;42318;48.452;19.526;2023-06-14T23:32:51;98267.28;;;20.37;57.78
56414;BME280;42318;48.452;19.526;2023-06-14T23:40:22;98267.78;;;20.34;57.72
56414;BME280;42318;48.452;19.526;2023-06-14T23:47:53;98271.34;;;20.34;57.60
56414;BME280;42318;48.452;19.526;2023-06-14T23:55:27;98271.03;;;20.31;57.78
